sensor_id;sensor_type;location;lat;lon;timestamp;P1;durP1;ratioP1;P2;durP2;ratioP2
27039;SDS011;14589;51.578;7.306;2024-03-23T00:54:41;6.60;;;0.88;;
27039;SDS011;14589;51.578;7.306;2024-03-23T00:57:11;3.83;;;1.08;;
27039;SDS011;14589;51.578;7.306;2024-03-23T00:59:42;6.93;;;0.98;;
27039;SDS011;14589;51.578;7.306;2024-03-23T01:02:12;11.38;;;1.23;;
27039;SDS011;14589;51.578;7.306;2024-03-23T01:04:42;5.25;;;0.80;;
27039;SDS011;14589;51.578;7.306;2024-03-23T01:07:13;7.47;;;1.55;;
27039;SDS011;14589;51.578;7.306;2024-03-23T01:09:43;6.03;;;1.02;;
27039;SDS011;14589;51.578;7.306;2024-03-23T01:12:13;5.88;;;1.33;;
27039;SDS011;14589;51.578;7.306;2024-03-23T01:14:44;8.55;;;0.90;;
27039;SDS011;14589;51.578;7.306;2024-03-23T01:17:14;5.97;;;0.52;;
27039;SDS011;14589;51.578;7.306;2024-03-23T01:19:45;5.07;;;0.40;;
27039;SDS011;14589;51.578;7.306;2024-03-23T01:22:15;6.82;;;0.50;;
27039;SDS011;14589;51.578;7.306;2024-03-23T01:24:45;2.80;;;0.63;;
27039;SDS011;14589;51.578;7.306;2024-03-23T01:27:16;5.32;;;0.32;;
27039;SDS011;14589;51.578;7.306;2024-03-23T01:29:46;6.82;;;0.75;;
27039;SDS011;14589;51.578;7.306;2024-03-23T01:32:17;1.67;;;0.10;;
27039;SDS011;14589;51.578;7.306;2024-03-23T01:34:48;8.18;;;2.05;;
27039;SDS011;14589;51.578;7.306;2024-03-23T01:37:19;3.47;;;0.47;;
27039;SDS011;14589;51.578;7.306;2024-03-23T01:39:49;5.80;;;0.30;;
27039;SDS011;14589;51.578;7.306;2024-03-23T01:42:19;3.65;;;0.30;;
27039;SDS011;14589;51.578;7.306;2024-03-23T01:44:50;5.32;;;0.73;;
27039;SDS011;14589;51.578;7.306;2024-03-23T01:47:21;5.40;;;0.70;;
27039;SDS011;14589;51.578;7.306;2024-03-23T01:49:51;4.07;;;0.55;;
27039;SDS011;14589;51.578;7.306;2024-03-23T01:52:22;5.47;;;0.85;;
27039;SDS011;14589;51.578;7.306;2024-03-23T01:54:52;6.80;;;0.73;;
27039;SDS011;14589;51.578;7.306;2024-03-23T01:57:23;9.60;;;1.10;;
27039;SDS011;14589;51.578;7.306;2024-03-23T01:59:53;8.45;;;1.13;;
27039;SDS011;14589;51.578;7.306;2024-03-23T02:02:30;5.13;;;0.63;;
27039;SDS011;14589;51.578;7.306;2024-03-23T02:05:00;6.00;;;0.47;;
27039;SDS011;14589;51.578;7.306;2024-03-23T02:07:31;6.72;;;1.35;;
27039;SDS011;14589;51.578;7.306;2024-03-23T02:10:02;4.82;;;0.30;;
27039;SDS011;14589;51.578;7.306;2024-03-23T02:12:33;5.72;;;0.57;;
27039;SDS011;14589;51.578;7.306;2024-03-23T02:15:04;6.50;;;0.30;;
27039;SDS011;14589;51.578;7.306;2024-03-23T02:17:35;6.07;;;0.30;;
27039;SDS011;14589;51.578;7.306;2024-03-23T02:20:06;4.80;;;0.57;;
27039;SDS011;14589;51.578;7.306;2024-03-23T02:22:36;5.47;;;0.93;;
27039;SDS011;14589;51.578;7.306;2024-03-23T02:25:07;7.35;;;1.27;;
27039;SDS011;14589;51.578;7.306;2024-03-23T02:27:38;7.97;;;0.40;;
27039;SDS011;14589;51.578;7.306;2024-03-23T02:30:10;1.55;;;0.22;;
27039;SDS011;14589;51.578;7.306;2024-03-23T02:32:40;6.43;;;0.30;;
27039;SDS011;14589;51.578;7.306;2024-03-23T02:35:11;4.38;;;0.82;;
27039;SDS011;14589;51.578;7.306;2024-03-23T02:37:41;2.60;;;0.22;;
27039;SDS011;14589;51.578;7.306;2024-03-23T02:40:11;2.13;;;0.25;;
27039;SDS011;14589;51.578;7.306;2024-03-23T02:42:42;5.43;;;0.73;;
27039;SDS011;14589;51.578;7.306;2024-03-23T02:45:12;3.15;;;0.20;;
27039;SDS011;14589;51.578;7.306;2024-03-23T02:47:43;4.95;;;0.40;;
27039;SDS011;14589;51.578;7.306;2024-03-23T02:50:13;3.80;;;0.65;;
27039;SDS011;14589;51.578;7.306;2024-03-23T02:52:45;6.20;;;0.95;;
27039;SDS011;14589;51.578;7.306;2024-03-23T02:55:16;4.53;;;0.57;;
27039;SDS011;14589;51.578;7.306;2024-03-23T02:57:46;2.83;;;0.25;;
27039;SDS011;14589;51.578;7.306;2024-03-23T03:00:17;6.50;;;0.30;;
27039;SDS011;14589;51.578;7.306;2024-03-23T03:02:47;5.93;;;0.35;;
27039;SDS011;14589;51.578;7.306;2024-03-23T03:05:18;2.55;;;0.20;;
27039;SDS011;14589;51.578;7.306;2024-03-23T03:07:48;3.63;;;0.38;;
27039;SDS011;14589;51.578;7.306;2024-03-23T03:10:18;4.53;;;0.13;;
27039;SDS011;14589;51.578;7.306;2024-03-23T03:12:49;4.28;;;0.45;;
27039;SDS011;14589;51.578;7.306;2024-03-23T03:15:19;5.20;;;0.70;;
27039;SDS011;14589;51.578;7.306;2024-03-23T03:17:49;6.47;;;0.82;;
27039;SDS011;14589;51.578;7.306;2024-03-23T03:20:20;2.70;;;0.22;;
27039;SDS011;14589;51.578;7.306;2024-03-23T03:22:52;3.33;;;0.40;;
27039;SDS011;14589;51.578;7.306;2024-03-23T03:25:23;3.17;;;0.68;;
27039;SDS011;14589;51.578;7.306;2024-03-23T03:27:54;5.05;;;0.45;;
27039;SDS011;14589;51.578;7.306;2024-03-23T03:30:24;2.40;;;0.20;;
27039;SDS011;14589;51.578;7.306;2024-03-23T03:32:54;5.57;;;1.05;;
27039;SDS011;14589;51.578;7.306;2024-03-23T03:35:25;6.53;;;1.08;;
27039;SDS011;14589;51.578;7.306;2024-03-23T03:37:55;4.28;;;0.73;;
27039;SDS011;14589;51.578;7.306;2024-03-23T03:40:26;3.08;;;0.22;;
27039;SDS011;14589;51.578;7.306;2024-03-23T03:42:56;2.92;;;0.80;;
27039;SDS011;14589;51.578;7.306;2024-03-23T03:45:26;6.38;;;0.80;;
27039;SDS011;14589;51.578;7.306;2024-03-23T03:47:57;5.53;;;0.43;;
27039;SDS011;14589;51.578;7.306;2024-03-23T03:50:27;9.25;;;1.50;;
27039;SDS011;14589;51.578;7.306;2024-03-23T03:52:58;8.23;;;0.40;;
27039;SDS011;14589;51.578;7.306;2024-03-23T03:55:28;6.45;;;0.65;;
27039;SDS011;14589;51.578;7.306;2024-03-23T03:57:58;6.63;;;0.43;;
27039;SDS011;14589;51.578;7.306;2024-03-23T04:00:29;4.03;;;0.55;;
27039;SDS011;14589;51.578;7.306;2024-03-23T04:02:59;5.30;;;0.70;;
27039;SDS011;14589;51.578;7.306;2024-03-23T04:05:29;4.45;;;0.50;;
27039;SDS011;14589;51.578;7.306;2024-03-23T04:08:00;2.63;;;0.25;;
27039;SDS011;14589;51.578;7.306;2024-03-23T04:10:30;5.95;;;0.38;;
27039;SDS011;14589;51.578;7.306;2024-03-23T04:13:00;1.95;;;0.40;;
27039;SDS011;14589;51.578;7.306;2024-03-23T04:15:31;1.75;;;0.30;;
27039;SDS011;14589;51.578;7.306;2024-03-23T04:18:01;2.63;;;0.20;;
27039;SDS011;14589;51.578;7.306;2024-03-23T04:20:32;4.60;;;0.43;;
27039;SDS011;14589;51.578;7.306;2024-03-23T04:23:02;5.10;;;0.30;;
27039;SDS011;14589;51.578;7.306;2024-03-23T04:25:33;1.42;;;0.28;;
27039;SDS011;14589;51.578;7.306;2024-03-23T04:28:03;4.78;;;0.52;;
27039;SDS011;14589;51.578;7.306;2024-03-23T04:30:34;8.80;;;0.57;;
27039;SDS011;14589;51.578;7.306;2024-03-23T04:33:05;5.13;;;0.50;;
27039;SDS011;14589;51.578;7.306;2024-03-23T04:35:35;6.65;;;0.57;;
27039;SDS011;14589;51.578;7.306;2024-03-23T04:38:06;4.35;;;0.60;;
27039;SDS011;14589;51.578;7.306;2024-03-23T04:40:37;1.73;;;0.32;;
27039;SDS011;14589;51.578;7.306;2024-03-23T04:43:07;8.35;;;0.57;;
27039;SDS011;14589;51.578;7.306;2024-03-23T04:45:37;5.82;;;0.45;;
27039;SDS011;14589;51.578;7.306;2024-03-23T04:48:08;2.88;;;0.32;;
27039;SDS011;14589;51.578;7.306;2024-03-23T04:50:39;1.90;;;0.40;;
27039;SDS011;14589;51.578;7.306;2024-03-23T04:53:09;2.80;;;0.30;;
27039;SDS011;14589;51.578;7.306;2024-03-23T04:55:39;4.78;;;0.82;;
27039;SDS011;14589;51.578;7.306;2024-03-23T04:58:10;4.35;;;0.30;;
27039;SDS011;14589;51.578;7.306;2024-03-23T05:00:40;4.85;;;1.17;;
27039;SDS011;14589;51.578;7.306;2024-03-23T05:03:10;4.53;;;0.30;;
27039;SDS011;14589;51.578;7.306;2024-03-23T05:05:41;3.03;;;0.32;;
27039;SDS011;14589;51.578;7.306;2024-03-23T05:08:11;5.57;;;1.13;;
27039;SDS011;14589;51.578;7.306;2024-03-23T05:10:42;7.03;;;1.27;;
27039;SDS011;14589;51.578;7.306;2024-03-23T05:13:13;5.78;;;0.93;;
27039;SDS011;14589;51.578;7.306;2024-03-23T05:15:43;3.22;;;0.55;;
27039;SDS011;14589;51.578;7.306;2024-03-23T05:18:13;6.75;;;0.85;;
27039;SDS011;14589;51.578;7.306;2024-03-23T05:20:44;9.05;;;1.20;;
27039;SDS011;14589;51.578;7.306;2024-03-23T05:23:14;7.35;;;0.95;;
27039;SDS011;14589;51.578;7.306;2024-03-23T05:25:45;5.68;;;0.60;;
27039;SDS011;14589;51.578;7.306;2024-03-23T05:28:15;13.40;;;1.67;;
27039;SDS011;14589;51.578;7.306;2024-03-23T05:30:52;4.40;;;1.10;;
27039;SDS011;14589;51.578;7.306;2024-03-23T05:33:23;6.55;;;0.63;;
27039;SDS011;14589;51.578;7.306;2024-03-23T05:35:57;9.73;;;0.63;;
27039;SDS011;14589;51.578;7.306;2024-03-23T05:38:28;6.15;;;0.85;;
27039;SDS011;14589;51.578;7.306;2024-03-23T05:40:59;6.35;;;1.58;;
27039;SDS011;14589;51.578;7.306;2024-03-23T05:43:30;6.75;;;2.22;;
27039;SDS011;14589;51.578;7.306;2024-03-23T05:46:01;6.35;;;1.33;;
27039;SDS011;14589;51.578;7.306;2024-03-23T05:48:32;3.22;;;0.60;;
27039;SDS011;14589;51.578;7.306;2024-03-23T05:51:02;5.85;;;1.08;;
27039;SDS011;14589;51.578;7.306;2024-03-23T05:53:32;6.90;;;1.40;;
27039;SDS011;14589;51.578;7.306;2024-03-23T05:56:04;4.00;;;1.23;;
27039;SDS011;14589;51.578;7.306;2024-03-23T05:58:35;14.55;;;2.10;;
27039;SDS011;14589;51.578;7.306;2024-03-23T06:01:06;6.60;;;1.55;;
27039;SDS011;14589;51.578;7.306;2024-03-23T06:03:36;5.80;;;1.40;;
27039;SDS011;14589;51.578;7.306;2024-03-23T06:06:06;11.55;;;2.67;;
27039;SDS011;14589;51.578;7.306;2024-03-23T06:08:41;5.93;;;1.80;;
27039;SDS011;14589;51.578;7.306;2024-03-23T06:11:12;12.65;;;1.50;;
27039;SDS011;14589;51.578;7.306;2024-03-23T06:13:42;6.03;;;1.33;;
27039;SDS011;14589;51.578;7.306;2024-03-23T06:16:12;8.82;;;1.67;;
27039;SDS011;14589;51.578;7.306;2024-03-23T06:18:43;8.88;;;2.00;;
27039;SDS011;14589;51.578;7.306;2024-03-23T06:21:13;9.23;;;2.17;;
27039;SDS011;14589;51.578;7.306;2024-03-23T06:23:44;9.57;;;2.13;;
27039;SDS011;14589;51.578;7.306;2024-03-23T06:26:21;7.45;;;1.70;;
27039;SDS011;14589;51.578;7.306;2024-03-23T06:28:51;10.80;;;2.67;;
27039;SDS011;14589;51.578;7.306;2024-03-23T06:31:22;8.85;;;1.90;;
27039;SDS011;14589;51.578;7.306;2024-03-23T06:33:52;9.25;;;2.35;;
27039;SDS011;14589;51.578;7.306;2024-03-23T06:36:22;8.88;;;2.85;;
27039;SDS011;14589;51.578;7.306;2024-03-23T06:38:53;6.82;;;2.13;;
27039;SDS011;14589;51.578;7.306;2024-03-23T06:41:23;8.27;;;3.17;;
27039;SDS011;14589;51.578;7.306;2024-03-23T06:43:55;13.82;;;3.63;;
27039;SDS011;14589;51.578;7.306;2024-03-23T06:46:25;12.57;;;2.88;;
27039;SDS011;14589;51.578;7.306;2024-03-23T06:48:55;12.50;;;3.72;;
27039;SDS011;14589;51.578;7.306;2024-03-23T06:51:26;14.82;;;4.18;;
27039;SDS011;14589;51.578;7.306;2024-03-23T06:53:56;11.02;;;3.65;;
27039;SDS011;14589;51.578;7.306;2024-03-23T06:56:26;8.90;;;3.17;;
27039;SDS011;14589;51.578;7.306;2024-03-23T06:58:57;9.35;;;2.72;;
27039;SDS011;14589;51.578;7.306;2024-03-23T07:01:27;15.60;;;3.75;;
27039;SDS011;14589;51.578;7.306;2024-03-23T07:04:01;12.35;;;3.08;;
27039;SDS011;14589;51.578;7.306;2024-03-23T07:06:31;9.20;;;4.68;;
27039;SDS011;14589;51.578;7.306;2024-03-23T07:09:02;8.80;;;2.80;;
27039;SDS011;14589;51.578;7.306;2024-03-23T07:11:32;11.38;;;3.70;;
27039;SDS011;14589;51.578;7.306;2024-03-23T07:14:03;11.38;;;3.50;;
27039;SDS011;14589;51.578;7.306;2024-03-23T07:16:33;9.43;;;2.75;;
27039;SDS011;14589;51.578;7.306;2024-03-23T07:19:03;11.75;;;4.30;;
27039;SDS011;14589;51.578;7.306;2024-03-23T07:21:34;13.55;;;4.65;;
27039;SDS011;14589;51.578;7.306;2024-03-23T07:24:04;16.45;;;4.45;;
27039;SDS011;14589;51.578;7.306;2024-03-23T07:26:35;14.15;;;4.15;;
27039;SDS011;14589;51.578;7.306;2024-03-23T07:29:06;11.77;;;4.22;;
27039;SDS011;14589;51.578;7.306;2024-03-23T07:31:36;17.77;;;4.25;;
27039;SDS011;14589;51.578;7.306;2024-03-23T07:34:08;11.52;;;4.88;;
27039;SDS011;14589;51.578;7.306;2024-03-23T07:36:39;11.63;;;3.50;;
27039;SDS011;14589;51.578;7.306;2024-03-23T07:39:09;9.68;;;3.30;;
27039;SDS011;14589;51.578;7.306;2024-03-23T07:41:39;11.52;;;3.55;;
27039;SDS011;14589;51.578;7.306;2024-03-23T07:44:10;8.75;;;3.38;;
27039;SDS011;14589;51.578;7.306;2024-03-23T07:46:40;9.52;;;3.47;;
27039;SDS011;14589;51.578;7.306;2024-03-23T07:49:10;8.52;;;3.80;;
27039;SDS011;14589;51.578;7.306;2024-03-23T07:51:41;10.88;;;4.18;;
27039;SDS011;14589;51.578;7.306;2024-03-23T07:54:11;10.98;;;2.97;;
27039;SDS011;14589;51.578;7.306;2024-03-23T07:56:41;13.20;;;4.13;;
27039;SDS011;14589;51.578;7.306;2024-03-23T07:59:12;10.07;;;2.95;;
27039;SDS011;14589;51.578;7.306;2024-03-23T08:01:42;7.72;;;2.35;;
27039;SDS011;14589;51.578;7.306;2024-03-23T08:04:12;9.65;;;1.95;;
27039;SDS011;14589;51.578;7.306;2024-03-23T08:06:43;6.32;;;1.95;;
27039;SDS011;14589;51.578;7.306;2024-03-23T08:09:13;8.82;;;1.95;;
27039;SDS011;14589;51.578;7.306;2024-03-23T08:11:43;8.88;;;1.33;;
27039;SDS011;14589;51.578;7.306;2024-03-23T08:14:16;7.70;;;1.23;;
27039;SDS011;14589;51.578;7.306;2024-03-23T08:16:46;6.65;;;1.95;;
27039;SDS011;14589;51.578;7.306;2024-03-23T08:19:19;5.03;;;0.80;;
27039;SDS011;14589;51.578;7.306;2024-03-23T08:21:49;6.13;;;1.17;;
27039;SDS011;14589;51.578;7.306;2024-03-23T08:24:21;11.25;;;1.85;;
27039;SDS011;14589;51.578;7.306;2024-03-23T08:26:53;5.30;;;1.55;;
27039;SDS011;14589;51.578;7.306;2024-03-23T08:29:24;3.15;;;1.10;;
27039;SDS011;14589;51.578;7.306;2024-03-23T08:31:55;10.20;;;1.27;;
27039;SDS011;14589;51.578;7.306;2024-03-23T08:34:25;8.70;;;1.05;;
27039;SDS011;14589;51.578;7.306;2024-03-23T08:36:55;8.35;;;1.58;;
27039;SDS011;14589;51.578;7.306;2024-03-23T08:39:26;11.35;;;1.50;;
27039;SDS011;14589;51.578;7.306;2024-03-23T08:41:56;15.25;;;2.47;;
27039;SDS011;14589;51.578;7.306;2024-03-23T08:44:26;10.52;;;1.60;;
27039;SDS011;14589;51.578;7.306;2024-03-23T08:46:57;6.63;;;2.17;;
27039;SDS011;14589;51.578;7.306;2024-03-23T08:49:27;8.20;;;1.33;;
27039;SDS011;14589;51.578;7.306;2024-03-23T08:51:57;7.88;;;1.30;;
27039;SDS011;14589;51.578;7.306;2024-03-23T08:54:28;8.20;;;2.08;;
27039;SDS011;14589;51.578;7.306;2024-03-23T08:57:00;9.30;;;1.77;;
27039;SDS011;14589;51.578;7.306;2024-03-23T08:59:30;9.93;;;2.00;;
27039;SDS011;14589;51.578;7.306;2024-03-23T09:02:01;11.77;;;2.10;;
27039;SDS011;14589;51.578;7.306;2024-03-23T09:04:31;5.75;;;1.63;;
27039;SDS011;14589;51.578;7.306;2024-03-23T09:07:03;12.27;;;2.25;;
27039;SDS011;14589;51.578;7.306;2024-03-23T09:09:33;7.72;;;1.65;;
27039;SDS011;14589;51.578;7.306;2024-03-23T09:12:03;6.25;;;1.10;;
27039;SDS011;14589;51.578;7.306;2024-03-23T09:14:34;9.32;;;1.13;;
27039;SDS011;14589;51.578;7.306;2024-03-23T09:17:04;6.47;;;0.77;;
27039;SDS011;14589;51.578;7.306;2024-03-23T09:19:35;4.03;;;1.25;;
27039;SDS011;14589;51.578;7.306;2024-03-23T09:22:05;10.00;;;1.65;;
27039;SDS011;14589;51.578;7.306;2024-03-23T09:24:36;8.32;;;1.00;;
27039;SDS011;14589;51.578;7.306;2024-03-23T09:27:07;4.75;;;0.70;;
27039;SDS011;14589;51.578;7.306;2024-03-23T09:29:38;9.43;;;1.33;;
27039;SDS011;14589;51.578;7.306;2024-03-23T09:32:08;7.85;;;0.73;;
27039;SDS011;14589;51.578;7.306;2024-03-23T09:34:38;6.70;;;1.10;;
27039;SDS011;14589;51.578;7.306;2024-03-23T09:37:09;5.38;;;0.77;;
27039;SDS011;14589;51.578;7.306;2024-03-23T09:39:39;4.50;;;0.75;;
27039;SDS011;14589;51.578;7.306;2024-03-23T09:42:09;6.25;;;1.27;;
27039;SDS011;14589;51.578;7.306;2024-03-23T09:44:40;4.63;;;0.50;;
27039;SDS011;14589;51.578;7.306;2024-03-23T09:47:10;7.68;;;0.32;;
27039;SDS011;14589;51.578;7.306;2024-03-23T09:49:40;6.20;;;0.43;;
27039;SDS011;14589;51.578;7.306;2024-03-23T09:52:11;3.28;;;0.20;;
27039;SDS011;14589;51.578;7.306;2024-03-23T09:54:42;4.35;;;0.35;;
27039;SDS011;14589;51.578;7.306;2024-03-23T09:57:12;4.78;;;0.25;;
27039;SDS011;14589;51.578;7.306;2024-03-23T09:59:43;2.45;;;0.50;;
27039;SDS011;14589;51.578;7.306;2024-03-23T10:02:13;2.63;;;0.20;;
27039;SDS011;14589;51.578;7.306;2024-03-23T10:04:47;7.55;;;0.68;;
27039;SDS011;14589;51.578;7.306;2024-03-23T10:07:20;5.68;;;0.75;;
27039;SDS011;14589;51.578;7.306;2024-03-23T10:09:52;3.42;;;0.52;;
27039;SDS011;14589;51.578;7.306;2024-03-23T10:12:23;2.22;;;0.50;;
27039;SDS011;14589;51.578;7.306;2024-03-23T10:14:54;6.00;;;1.23;;
27039;SDS011;14589;51.578;7.306;2024-03-23T10:17:24;3.50;;;0.50;;
27039;SDS011;14589;51.578;7.306;2024-03-23T10:19:55;3.20;;;0.15;;
27039;SDS011;14589;51.578;7.306;2024-03-23T10:22:26;5.38;;;1.13;;
27039;SDS011;14589;51.578;7.306;2024-03-23T10:24:56;4.70;;;0.68;;
27039;SDS011;14589;51.578;7.306;2024-03-23T10:27:38;3.45;;;0.40;;
27039;SDS011;14589;51.578;7.306;2024-03-23T10:30:12;4.38;;;0.75;;
27039;SDS011;14589;51.578;7.306;2024-03-23T10:32:46;2.83;;;0.17;;
27039;SDS011;14589;51.578;7.306;2024-03-23T10:35:20;6.45;;;0.68;;
27039;SDS011;14589;51.578;7.306;2024-03-23T10:37:53;6.07;;;0.65;;
27039;SDS011;14589;51.578;7.306;2024-03-23T10:40:25;5.97;;;1.63;;
27039;SDS011;14589;51.578;7.306;2024-03-23T10:42:57;3.22;;;0.25;;
27039;SDS011;14589;51.578;7.306;2024-03-23T10:45:28;4.72;;;0.90;;
27039;SDS011;14589;51.578;7.306;2024-03-23T10:47:59;5.40;;;0.28;;
27039;SDS011;14589;51.578;7.306;2024-03-23T10:50:29;4.70;;;0.65;;
27039;SDS011;14589;51.578;7.306;2024-03-23T10:53:00;5.50;;;0.75;;
27039;SDS011;14589;51.578;7.306;2024-03-23T10:55:32;3.50;;;0.45;;
27039;SDS011;14589;51.578;7.306;2024-03-23T10:58:04;2.13;;;0.20;;
27039;SDS011;14589;51.578;7.306;2024-03-23T11:00:34;6.82;;;0.85;;
27039;SDS011;14589;51.578;7.306;2024-03-23T11:06:00;4.53;;;1.75;;
27039;SDS011;14589;51.578;7.306;2024-03-23T11:08:38;4.72;;;0.57;;
27039;SDS011;14589;51.578;7.306;2024-03-23T11:11:22;4.57;;;0.20;;
27039;SDS011;14589;51.578;7.306;2024-03-23T11:13:55;4.40;;;0.25;;
27039;SDS011;14589;51.578;7.306;2024-03-23T11:16:26;3.15;;;0.98;;
27039;SDS011;14589;51.578;7.306;2024-03-23T11:22:07;4.85;;;1.02;;
27039;SDS011;14589;51.578;7.306;2024-03-23T11:24:38;2.88;;;0.25;;
27039;SDS011;14589;51.578;7.306;2024-03-23T11:27:17;3.47;;;0.20;;
27039;SDS011;14589;51.578;7.306;2024-03-23T11:29:48;1.88;;;0.10;;
27039;SDS011;14589;51.578;7.306;2024-03-23T11:32:18;0.98;;;0.08;;
27039;SDS011;14589;51.578;7.306;2024-03-23T11:34:49;3.25;;;0.10;;
27039;SDS011;14589;51.578;7.306;2024-03-23T11:37:19;2.15;;;0.68;;
27039;SDS011;14589;51.578;7.306;2024-03-23T11:39:49;5.50;;;0.30;;
27039;SDS011;14589;51.578;7.306;2024-03-23T11:42:20;2.67;;;0.22;;
27039;SDS011;14589;51.578;7.306;2024-03-23T11:44:51;1.25;;;0.28;;
27039;SDS011;14589;51.578;7.306;2024-03-23T11:47:22;4.10;;;0.13;;
27039;SDS011;14589;51.578;7.306;2024-03-23T11:49:52;1.50;;;0.10;;
27039;SDS011;14589;51.578;7.306;2024-03-23T11:52:23;3.22;;;0.25;;
27039;SDS011;14589;51.578;7.306;2024-03-23T11:55:03;3.10;;;0.10;;
27039;SDS011;14589;51.578;7.306;2024-03-23T11:57:34;1.83;;;0.10;;
27039;SDS011;14589;51.578;7.306;2024-03-23T12:00:19;1.98;;;0.15;;
27039;SDS011;14589;51.578;7.306;2024-03-23T12:02:50;2.60;;;0.08;;
27039;SDS011;14589;51.578;7.306;2024-03-23T12:05:21;2.85;;;0.10;;
27039;SDS011;14589;51.578;7.306;2024-03-23T12:07:52;5.30;;;0.30;;
27039;SDS011;14589;51.578;7.306;2024-03-23T12:10:22;3.13;;;0.40;;
27039;SDS011;14589;51.578;7.306;2024-03-23T12:13:00;4.50;;;0.35;;
27039;SDS011;14589;51.578;7.306;2024-03-23T12:15:30;2.88;;;0.47;;
27039;SDS011;14589;51.578;7.306;2024-03-23T12:18:07;3.67;;;0.38;;
27039;SDS011;14589;51.578;7.306;2024-03-23T12:20:38;3.20;;;0.80;;
27039;SDS011;14589;51.578;7.306;2024-03-23T12:23:10;3.35;;;0.30;;
27039;SDS011;14589;51.578;7.306;2024-03-23T12:25:44;1.98;;;0.13;;
27039;SDS011;14589;51.578;7.306;2024-03-23T12:28:15;2.78;;;0.77;;
27039;SDS011;14589;51.578;7.306;2024-03-23T12:30:45;4.82;;;0.80;;
27039;SDS011;14589;51.578;7.306;2024-03-23T12:33:15;3.13;;;0.57;;
27039;SDS011;14589;51.578;7.306;2024-03-23T12:35:46;3.17;;;1.35;;
27039;SDS011;14589;51.578;7.306;2024-03-23T12:38:17;1.40;;;0.20;;
27039;SDS011;14589;51.578;7.306;2024-03-23T12:40:50;2.20;;;0.35;;
27039;SDS011;14589;51.578;7.306;2024-03-23T12:43:21;3.80;;;0.40;;
27039;SDS011;14589;51.578;7.306;2024-03-23T12:45:51;2.08;;;0.40;;
27039;SDS011;14589;51.578;7.306;2024-03-23T12:48:22;4.00;;;0.22;;
27039;SDS011;14589;51.578;7.306;2024-03-23T12:50:55;2.80;;;0.52;;
27039;SDS011;14589;51.578;7.306;2024-03-23T12:53:26;2.88;;;0.10;;
27039;SDS011;14589;51.578;7.306;2024-03-23T12:55:56;7.68;;;0.25;;
27039;SDS011;14589;51.578;7.306;2024-03-23T12:58:27;5.03;;;0.30;;
27039;SDS011;14589;51.578;7.306;2024-03-23T13:01:00;1.63;;;0.20;;
27039;SDS011;14589;51.578;7.306;2024-03-23T13:03:31;2.80;;;0.10;;
27039;SDS011;14589;51.578;7.306;2024-03-23T13:06:01;4.10;;;0.22;;
27039;SDS011;14589;51.578;7.306;2024-03-23T13:08:34;2.55;;;0.10;;
27039;SDS011;14589;51.578;7.306;2024-03-23T13:11:05;3.85;;;0.10;;
27039;SDS011;14589;51.578;7.306;2024-03-23T13:13:35;2.92;;;0.15;;
27039;SDS011;14589;51.578;7.306;2024-03-23T13:16:06;1.98;;;0.15;;
27039;SDS011;14589;51.578;7.306;2024-03-23T13:18:39;2.25;;;0.30;;
27039;SDS011;14589;51.578;7.306;2024-03-23T13:21:10;3.25;;;0.85;;
27039;SDS011;14589;51.578;7.306;2024-03-23T13:23:40;1.67;;;0.28;;
27039;SDS011;14589;51.578;7.306;2024-03-23T13:26:12;2.25;;;0.30;;
27039;SDS011;14589;51.578;7.306;2024-03-23T13:28:42;0.95;;;0.28;;
27039;SDS011;14589;51.578;7.306;2024-03-23T13:31:13;1.00;;;0.20;;
27039;SDS011;14589;51.578;7.306;2024-03-23T13:33:43;1.27;;;0.32;;
27039;SDS011;14589;51.578;7.306;2024-03-23T13:36:14;0.77;;;0.00;;
27039;SDS011;14589;51.578;7.306;2024-03-23T13:38:44;1.60;;;0.25;;
27039;SDS011;14589;51.578;7.306;2024-03-23T13:41:14;1.48;;;0.25;;
27039;SDS011;14589;51.578;7.306;2024-03-23T13:43:45;2.47;;;0.00;;
27039;SDS011;14589;51.578;7.306;2024-03-23T13:46:15;2.05;;;0.20;;
27039;SDS011;14589;51.578;7.306;2024-03-23T13:48:46;3.75;;;0.10;;
27039;SDS011;14589;51.578;7.306;2024-03-23T13:51:22;3.35;;;0.08;;
27039;SDS011;14589;51.578;7.306;2024-03-23T13:53:54;3.75;;;0.60;;
27039;SDS011;14589;51.578;7.306;2024-03-23T13:56:31;2.55;;;0.10;;
27039;SDS011;14589;51.578;7.306;2024-03-23T13:59:02;3.28;;;0.22;;
27039;SDS011;14589;51.578;7.306;2024-03-23T14:01:33;0.57;;;0.05;;
27039;SDS011;14589;51.578;7.306;2024-03-23T14:04:03;2.42;;;0.00;;
27039;SDS011;14589;51.578;7.306;2024-03-23T14:06:34;0.63;;;0.00;;
27039;SDS011;14589;51.578;7.306;2024-03-23T14:09:04;2.78;;;0.30;;
27039;SDS011;14589;51.578;7.306;2024-03-23T14:11:38;2.10;;;0.22;;
27039;SDS011;14589;51.578;7.306;2024-03-23T14:14:10;1.23;;;0.43;;
27039;SDS011;14589;51.578;7.306;2024-03-23T14:16:41;4.60;;;0.35;;
27039;SDS011;14589;51.578;7.306;2024-03-23T14:19:11;2.15;;;0.22;;
27039;SDS011;14589;51.578;7.306;2024-03-23T14:21:41;2.92;;;0.50;;
27039;SDS011;14589;51.578;7.306;2024-03-23T14:24:12;3.30;;;0.32;;
27039;SDS011;14589;51.578;7.306;2024-03-23T14:26:42;2.88;;;0.20;;
27039;SDS011;14589;51.578;7.306;2024-03-23T14:29:13;1.25;;;0.10;;
27039;SDS011;14589;51.578;7.306;2024-03-23T14:31:43;1.98;;;0.32;;
27039;SDS011;14589;51.578;7.306;2024-03-23T14:34:13;2.15;;;0.30;;
27039;SDS011;14589;51.578;7.306;2024-03-23T14:36:44;2.88;;;0.60;;
27039;SDS011;14589;51.578;7.306;2024-03-23T14:39:14;1.85;;;0.57;;
27039;SDS011;14589;51.578;7.306;2024-03-23T14:41:45;4.30;;;0.57;;
27039;SDS011;14589;51.578;7.306;2024-03-23T14:44:15;5.85;;;0.50;;
27039;SDS011;14589;51.578;7.306;2024-03-23T14:46:46;3.63;;;0.00;;
27039;SDS011;14589;51.578;7.306;2024-03-23T14:49:16;2.90;;;0.30;;
27039;SDS011;14589;51.578;7.306;2024-03-23T14:51:47;2.65;;;0.70;;
27039;SDS011;14589;51.578;7.306;2024-03-23T14:54:17;4.65;;;0.30;;
27039;SDS011;14589;51.578;7.306;2024-03-23T14:56:47;4.38;;;0.15;;
27039;SDS011;14589;51.578;7.306;2024-03-23T14:59:18;5.28;;;0.52;;
27039;SDS011;14589;51.578;7.306;2024-03-23T15:01:49;1.88;;;0.47;;
27039;SDS011;14589;51.578;7.306;2024-03-23T15:04:21;3.92;;;0.08;;
27039;SDS011;14589;51.578;7.306;2024-03-23T15:06:51;3.15;;;0.20;;
27039;SDS011;14589;51.578;7.306;2024-03-23T15:09:21;1.77;;;0.25;;
27039;SDS011;14589;51.578;7.306;2024-03-23T15:11:52;1.45;;;0.38;;
27039;SDS011;14589;51.578;7.306;2024-03-23T15:14:25;2.35;;;0.73;;
27039;SDS011;14589;51.578;7.306;2024-03-23T15:16:55;2.78;;;0.70;;
27039;SDS011;14589;51.578;7.306;2024-03-23T15:19:25;3.83;;;0.30;;
27039;SDS011;14589;51.578;7.306;2024-03-23T15:21:56;5.75;;;0.45;;
27039;SDS011;14589;51.578;7.306;2024-03-23T15:24:26;2.67;;;0.22;;
27039;SDS011;14589;51.578;7.306;2024-03-23T15:26:57;5.10;;;0.03;;
27039;SDS011;14589;51.578;7.306;2024-03-23T15:29:27;2.72;;;0.20;;
27039;SDS011;14589;51.578;7.306;2024-03-23T15:31:57;1.27;;;0.35;;
27039;SDS011;14589;51.578;7.306;2024-03-23T15:34:29;1.70;;;0.17;;
27039;SDS011;14589;51.578;7.306;2024-03-23T15:36:59;1.33;;;0.20;;
27039;SDS011;14589;51.578;7.306;2024-03-23T15:39:29;1.90;;;0.30;;
27039;SDS011;14589;51.578;7.306;2024-03-23T15:42:00;5.50;;;1.05;;
27039;SDS011;14589;51.578;7.306;2024-03-23T15:44:30;3.20;;;0.00;;
27039;SDS011;14589;51.578;7.306;2024-03-23T15:47:01;2.25;;;0.20;;
27039;SDS011;14589;51.578;7.306;2024-03-23T15:49:31;2.15;;;0.10;;
27039;SDS011;14589;51.578;7.306;2024-03-23T15:52:02;2.15;;;0.10;;
27039;SDS011;14589;51.578;7.306;2024-03-23T15:54:32;3.53;;;0.10;;
27039;SDS011;14589;51.578;7.306;2024-03-23T15:57:02;3.40;;;0.22;;
27039;SDS011;14589;51.578;7.306;2024-03-23T15:59:33;0.50;;;0.15;;
27039;SDS011;14589;51.578;7.306;2024-03-23T16:02:03;1.52;;;0.40;;
27039;SDS011;14589;51.578;7.306;2024-03-23T16:04:34;2.38;;;0.38;;
27039;SDS011;14589;51.578;7.306;2024-03-23T16:07:04;6.15;;;0.40;;